createdAt,value
2018-09-01T00:02:20.548Z,97.70
2018-09-01T00:04:48.782Z,97.80
2018-09-01T00:07:17.103Z,97.80
2018-09-01T00:09:45.449Z,98.00
2018-09-01T00:12:13.867Z,97.80
2018-09-01T00:14:42.099Z,97.90
2018-09-01T00:17:14.551Z,97.90
2018-09-01T00:19:42.780Z,97.90
2018-09-01T00:22:10.998Z,97.90
2018-09-01T00:24:39.220Z,98.00
2018-09-01T00:27:07.419Z,98.10
2018-09-01T00:29:35.640Z,98.00
2018-09-01T00:32:03.832Z,98.10
2018-09-01T00:34:32.116Z,98.10
2018-09-01T00:37:00.341Z,98.20
2018-09-01T00:39:28.769Z,98.20
2018-09-01T00:41:57.296Z,98.30
2018-09-01T00:44:25.503Z,98.30
2018-09-01T00:46:53.699Z,98.30
2018-09-01T00:49:22.128Z,98.30
2018-09-01T00:51:50.343Z,98.30
2018-09-01T00:54:18.995Z,98.30
2018-09-01T00:56:47.184Z,98.40
2018-09-01T00:59:15.376Z,98.40
2018-09-01T01:01:43.784Z,98.40
2018-09-01T01:04:12.008Z,98.50
2018-09-01T01:06:40.560Z,98.50
2018-09-01T01:09:08.812Z,98.50
2018-09-01T01:11:37.005Z,98.60
2018-09-01T01:14:05.424Z,98.60
2018-09-01T01:16:33.631Z,98.60
2018-09-01T01:19:02.987Z,98.60
2018-09-01T01:21:31.480Z,98.60
2018-09-01T01:23:59.684Z,98.60
2018-09-01T01:26:28.220Z,98.60
2018-09-01T01:28:56.440Z,98.60
2018-09-01T01:31:24.884Z,98.60
2018-09-01T01:33:53.264Z,99.00
2018-09-01T01:36:21.492Z,98.70
2018-09-01T01:38:49.699Z,98.70
2018-09-01T01:41:18.195Z,98.60
2018-09-01T01:43:46.336Z,98.70
2018-09-01T01:46:14.772Z,98.60
2018-09-01T01:48:42.985Z,98.60
2018-09-01T01:51:11.893Z,98.60
2018-09-01T01:53:40.078Z,98.60
2018-09-01T01:56:08.382Z,98.60
2018-09-01T01:58:37.002Z,98.50
2018-09-01T02:01:05.195Z,98.40
2018-09-01T02:03:33.403Z,98.40
2018-09-01T02:06:02.270Z,98.30
2018-09-01T02:08:30.476Z,98.30
2018-09-01T02:10:59.308Z,98.20
2018-09-01T02:13:27.504Z,98.20
2018-09-01T02:15:55.920Z,98.20
2018-09-01T02:18:24.146Z,98.10
2018-09-01T02:20:52.352Z,98.10
2018-09-01T02:23:20.899Z,98.10
2018-09-01T02:25:49.088Z,98.20
2018-09-01T02:28:17.349Z,98.10
2018-09-01T02:30:45.761Z,98.10
2018-09-01T02:33:13.973Z,98.10
2018-09-01T02:35:42.171Z,98.20
2018-09-01T02:38:10.620Z,98.20
2018-09-01T02:40:38.824Z,98.20
2018-09-01T02:43:07.303Z,98.20
2018-09-01T02:45:35.499Z,98.30
2018-09-01T02:48:03.767Z,98.30
2018-09-01T02:50:32.282Z,98.30
2018-09-01T02:53:00.624Z,98.30
2018-09-01T02:55:28.836Z,98.40
2018-09-01T02:57:57.245Z,98.40
2018-09-01T03:00:30.851Z,98.40
2018-09-01T03:02:59.252Z,98.50
2018-09-01T03:05:27.466Z,98.50
2018-09-01T03:07:56.120Z,98.50
2018-09-01T03:10:24.623Z,98.50
2018-09-01T03:12:52.832Z,98.50
2018-09-01T03:15:21.019Z,98.50
2018-09-01T03:17:49.489Z,98.50
2018-09-01T03:20:17.737Z,98.50
2018-09-01T03:22:45.905Z,98.50
2018-09-01T03:25:14.288Z,98.40
2018-09-01T03:27:42.511Z,98.40
2018-09-01T03:30:10.785Z,98.40
2018-09-01T03:32:38.974Z,98.40
2018-09-01T03:35:07.204Z,98.20
2018-09-01T03:37:35.424Z,98.30
2018-09-01T03:40:03.635Z,98.30
2018-09-01T03:42:32.104Z,98.30
2018-09-01T03:45:00.325Z,98.20
2018-09-01T03:47:28.552Z,98.50
2018-09-01T03:49:56.784Z,98.50
2018-09-01T03:52:25.000Z,98.60
2018-09-01T03:54:53.227Z,98.70
2018-09-01T03:57:21.460Z,98.80
2018-09-01T03:59:49.687Z,98.80
2018-09-01T04:02:17.885Z,98.90
2018-09-01T04:04:46.174Z,98.90
2018-09-01T04:07:14.369Z,99.00
2018-09-01T04:09:42.588Z,99.10
2018-09-01T04:12:10.812Z,99.20
2018-09-01T04:14:38.996Z,99.30
2018-09-01T04:17:07.185Z,99.40
2018-09-01T04:19:35.414Z,99.50
2018-09-01T04:22:03.584Z,99.50
2018-09-01T04:24:31.799Z,99.50
2018-09-01T04:27:00.039Z,99.40
2018-09-01T04:29:28.272Z,99.40
2018-09-01T04:31:56.588Z,99.40
2018-09-01T04:34:24.713Z,99.30
2018-09-01T04:36:53.195Z,99.30
2018-09-01T04:39:21.475Z,99.30
2018-09-01T04:41:49.668Z,99.30
2018-09-01T04:44:18.068Z,99.30
2018-09-01T04:46:46.304Z,99.20
2018-09-01T04:49:14.507Z,99.20
2018-09-01T04:51:42.871Z,99.20
2018-09-01T04:54:11.075Z,99.20
2018-09-01T04:56:39.281Z,99.20
2018-09-01T04:59:07.696Z,99.20
2018-09-01T05:01:35.900Z,99.20
2018-09-01T05:04:04.479Z,99.20
2018-09-01T05:06:32.687Z,99.20
2018-09-01T05:09:00.900Z,99.20
2018-09-01T05:11:29.456Z,99.20
2018-09-01T05:13:57.674Z,99.10
2018-09-01T05:16:25.938Z,99.20
2018-09-01T05:18:54.317Z,99.10
2018-09-01T05:21:22.514Z,99.10
2018-09-01T05:23:50.720Z,99.00
2018-09-01T05:26:19.080Z,99.00
2018-09-01T05:28:47.379Z,99.00
2018-09-01T05:31:16.896Z,99.10
2018-09-01T05:33:45.224Z,99.00
2018-09-01T05:36:13.418Z,98.90
2018-09-01T05:38:41.964Z,98.80
2018-09-01T05:41:10.168Z,98.80
2018-09-01T05:43:38.440Z,98.60
2018-09-01T05:46:06.611Z,98.50
2018-09-01T05:48:34.840Z,98.40
2018-09-01T05:51:03.128Z,98.30
2018-09-01T05:53:31.357Z,98.10
2018-09-01T05:55:59.580Z,97.90
2018-09-01T05:58:27.805Z,97.70
2018-09-01T06:00:56.050Z,97.50
2018-09-01T06:03:24.256Z,97.40
2018-09-01T06:05:52.782Z,97.30
2018-09-01T06:08:21.199Z,97.10
2018-09-01T06:10:49.496Z,97.00
2018-09-01T06:13:17.700Z,97.00
2018-09-01T06:15:46.080Z,96.90
2018-09-01T06:18:14.280Z,96.80
2018-09-01T06:20:42.476Z,96.80
2018-09-01T06:23:10.852Z,96.70
2018-09-01T06:25:39.264Z,96.50
2018-09-01T06:28:17.101Z,96.40
2018-09-01T06:30:47.852Z,96.20
2018-09-01T06:33:16.115Z,96.00
2018-09-01T06:35:44.372Z,96.00
2018-09-01T06:38:12.755Z,95.90
2018-09-01T06:40:40.928Z,95.70
2018-09-01T06:43:09.378Z,95.50
2018-09-01T06:45:37.524Z,95.30
2018-09-01T06:48:05.759Z,95.20
2018-09-01T06:50:34.985Z,95.10
2018-09-01T06:53:03.488Z,94.70
2018-09-01T06:55:31.752Z,94.10
2018-09-01T06:58:00.015Z,93.60
2018-09-01T07:00:28.300Z,93.30
2018-09-01T07:02:57.044Z,93.10
2018-09-01T07:05:25.638Z,92.80
2018-09-01T07:07:53.823Z,92.50
2018-09-01T07:10:22.332Z,92.10
2018-09-01T07:12:50.540Z,91.90
2018-09-01T07:15:18.824Z,91.60
2018-09-01T07:17:46.996Z,91.20
2018-09-01T07:20:15.219Z,91.10
2018-09-01T07:22:43.485Z,91.00
2018-09-01T07:25:11.672Z,90.70
2018-09-01T07:27:40.040Z,90.60
2018-09-01T07:30:09.395Z,90.20
2018-09-01T07:32:37.623Z,89.10
2018-09-01T07:35:05.900Z,88.00
2018-09-01T07:37:34.107Z,87.00
2018-09-01T07:40:02.344Z,86.70
2018-09-01T07:42:30.588Z,86.80
2018-09-01T07:44:58.875Z,86.00
2018-09-01T07:47:27.251Z,85.60
2018-09-01T07:49:55.590Z,85.20
2018-09-01T07:52:23.680Z,84.50
2018-09-01T07:54:51.906Z,83.60
2018-09-01T07:57:20.159Z,82.60
2018-09-01T07:59:48.652Z,81.00
2018-09-01T08:02:17.084Z,79.80
2018-09-01T08:04:45.303Z,79.70
2018-09-01T08:07:13.528Z,79.20
2018-09-01T08:09:41.744Z,78.90
2018-09-01T08:12:09.923Z,78.90
2018-09-01T08:14:38.233Z,78.60
2018-09-01T08:17:06.430Z,78.40
2018-09-01T08:19:34.751Z,78.10
2018-09-01T08:22:02.930Z,77.80
2018-09-01T08:24:31.166Z,77.40
2018-09-01T08:26:59.382Z,76.90
2018-09-01T08:29:27.884Z,76.90
2018-09-01T08:31:56.577Z,76.50
2018-09-01T08:34:24.760Z,76.70
2018-09-01T08:36:52.997Z,76.70
2018-09-01T08:39:21.371Z,77.00
2018-09-01T08:41:49.730Z,77.20
2018-09-01T08:44:17.977Z,77.10
2018-09-01T08:46:46.204Z,76.70
2018-09-01T08:49:14.514Z,76.90
2018-09-01T08:51:42.719Z,76.80
2018-09-01T08:54:10.965Z,76.30
2018-09-01T08:56:39.205Z,75.90
2018-09-01T08:59:07.339Z,75.30
2018-09-01T09:01:35.565Z,74.90
2018-09-01T09:04:03.779Z,73.60
2018-09-01T09:06:32.025Z,72.50
2018-09-01T09:09:00.274Z,72.30
2018-09-01T09:11:28.573Z,71.90
2018-09-01T09:13:56.751Z,72.00
2018-09-01T09:16:24.965Z,70.80
2018-09-01T09:18:53.215Z,70.40
2018-09-01T09:21:21.418Z,69.10
2018-09-01T09:23:49.701Z,69.20
2018-09-01T09:26:17.863Z,68.70
2018-09-01T09:28:46.120Z,67.30
2018-09-01T09:31:14.353Z,67.30
2018-09-01T09:33:42.547Z,67.80
2018-09-01T09:36:10.780Z,66.20
2018-09-01T09:38:39.012Z,65.90
2018-09-01T09:41:11.824Z,65.40
2018-09-01T09:43:40.023Z,64.20
2018-09-01T09:46:08.232Z,63.90
2018-09-01T09:48:36.477Z,63.30
2018-09-01T09:51:04.723Z,62.80
2018-09-01T09:53:32.953Z,62.30
2018-09-01T09:56:01.264Z,61.40
2018-09-01T09:58:29.476Z,61.10
2018-09-01T10:00:59.667Z,60.80
2018-09-01T10:03:28.460Z,60.00
2018-09-01T10:05:56.695Z,59.30
2018-09-01T10:08:24.893Z,58.30
2018-09-01T10:10:53.137Z,57.40
2018-09-01T10:13:21.304Z,57.70
2018-09-01T10:15:49.687Z,57.00
2018-09-01T10:18:17.835Z,56.60
2018-09-01T10:20:46.035Z,56.00
2018-09-01T10:23:14.220Z,55.80
2018-09-01T10:25:42.424Z,55.40
2018-09-01T10:28:10.612Z,55.60
2018-09-01T10:30:38.916Z,55.50
2018-09-01T10:33:07.393Z,55.30
2018-09-01T10:35:35.660Z,55.40
2018-09-01T10:38:04.076Z,55.00
2018-09-01T10:40:32.285Z,53.90
2018-09-01T10:43:00.522Z,54.20
2018-09-01T10:45:28.888Z,54.30
2018-09-01T10:47:57.141Z,54.50
2018-09-01T10:50:25.429Z,54.50
2018-09-01T10:52:53.808Z,54.30
2018-09-01T10:55:22.055Z,54.00
2018-09-01T10:57:50.653Z,53.50
2018-09-01T11:00:20.844Z,52.80
2018-09-01T11:02:50.577Z,52.00
2018-09-01T11:05:18.866Z,52.20
2018-09-01T11:07:47.108Z,52.50
2018-09-01T11:10:15.347Z,52.20
2018-09-01T11:12:43.662Z,51.70
2018-09-01T11:15:11.842Z,50.00
2018-09-01T11:17:40.072Z,49.10
2018-09-01T11:20:08.370Z,48.70
2018-09-01T11:22:36.539Z,48.90
2018-09-01T11:25:04.817Z,48.90
2018-09-01T11:27:33.094Z,49.00
2018-09-01T11:30:01.259Z,48.80
2018-09-01T11:32:29.788Z,48.90
2018-09-01T11:34:58.220Z,48.50
2018-09-01T11:37:26.424Z,48.00
2018-09-01T11:39:54.644Z,47.60
2018-09-01T11:42:22.869Z,47.20
2018-09-01T11:44:51.119Z,46.50
2018-09-01T11:47:19.291Z,46.60
2018-09-01T11:49:47.523Z,46.90
2018-09-01T11:52:15.751Z,47.20
2018-09-01T11:54:44.058Z,46.40
2018-09-01T11:57:12.272Z,46.00
2018-09-01T11:59:40.498Z,45.60
2018-09-01T12:02:08.727Z,45.00
2018-09-01T12:04:36.917Z,45.00
2018-09-01T12:07:05.246Z,44.90
2018-09-01T12:09:33.449Z,45.10
2018-09-01T12:12:01.742Z,45.10
2018-09-01T12:14:30.128Z,45.20
2018-09-01T12:16:58.393Z,45.60
2018-09-01T12:19:26.923Z,45.50
2018-09-01T12:21:55.151Z,45.60
2018-09-01T12:24:23.506Z,45.00
2018-09-01T12:26:51.932Z,44.30
2018-09-01T12:29:20.180Z,44.30
2018-09-01T12:31:48.415Z,43.90
2018-09-01T12:34:16.645Z,43.80
2018-09-01T12:36:44.865Z,43.60
2018-09-01T12:39:13.064Z,43.20
2018-09-01T12:41:41.276Z,42.30
2018-09-01T12:44:09.477Z,41.70
2018-09-01T12:46:37.728Z,41.30
2018-09-01T12:49:05.931Z,41.30
2018-09-01T12:51:34.162Z,41.60
2018-09-01T12:54:02.404Z,41.60
2018-09-01T12:56:30.733Z,41.60
2018-09-01T12:58:58.938Z,41.50
2018-09-01T13:01:27.153Z,41.20
2018-09-01T13:03:55.368Z,40.70
2018-09-01T13:06:23.624Z,41.00
2018-09-01T13:08:51.828Z,40.60
2018-09-01T13:11:20.061Z,41.20
2018-09-01T13:13:48.276Z,41.70
2018-09-01T13:16:16.564Z,42.70
2018-09-01T13:18:44.784Z,42.80
2018-09-01T13:21:13.051Z,43.20
2018-09-01T13:23:41.380Z,43.20
2018-09-01T13:26:09.587Z,42.80
2018-09-01T13:28:37.816Z,42.80
2018-09-01T13:31:06.020Z,43.60
2018-09-01T13:33:34.548Z,42.60
2018-09-01T13:36:02.878Z,42.50
2018-09-01T13:38:31.082Z,42.70
2018-09-01T13:40:59.325Z,42.30
2018-09-01T13:43:27.536Z,42.10
2018-09-01T13:45:55.752Z,42.00
2018-09-01T13:48:23.967Z,42.00
2018-09-01T13:50:52.197Z,41.70
2018-09-01T13:53:20.384Z,41.40
2018-09-01T13:55:48.604Z,41.30
2018-09-01T13:58:16.827Z,41.20
2018-09-01T14:00:45.052Z,41.00
2018-09-01T14:03:13.352Z,40.60
2018-09-01T14:05:41.575Z,40.70
2018-09-01T14:08:09.913Z,40.40
2018-09-01T14:10:38.138Z,39.80
2018-09-01T14:13:06.428Z,40.00
2018-09-01T14:15:34.652Z,39.80
2018-09-01T14:18:02.901Z,39.80
2018-09-01T14:20:31.186Z,39.70
2018-09-01T14:22:59.440Z,39.20
2018-09-01T14:25:27.652Z,38.80
2018-09-01T14:27:55.831Z,39.10
2018-09-01T14:30:24.052Z,39.50
2018-09-01T14:32:52.356Z,39.50
2018-09-01T14:35:20.680Z,39.20
2018-09-01T14:37:48.892Z,39.30
2018-09-01T14:40:17.103Z,38.70
2018-09-01T14:42:45.395Z,37.90
2018-09-01T14:45:13.583Z,38.00
2018-09-01T14:47:41.816Z,37.40
2018-09-01T14:50:10.031Z,36.90
2018-09-01T14:52:38.296Z,37.00
2018-09-01T14:55:06.572Z,37.20
2018-09-01T14:57:34.806Z,37.30
2018-09-01T15:00:03.088Z,36.90
2018-09-01T15:02:31.322Z,36.90
2018-09-01T15:04:59.570Z,36.60
2018-09-01T15:07:27.771Z,36.60
2018-09-01T15:09:56.016Z,36.90
2018-09-01T15:12:24.227Z,37.50
2018-09-01T15:14:52.460Z,37.60
2018-09-01T15:17:20.661Z,38.10
2018-09-01T15:19:48.908Z,38.30
2018-09-01T15:22:17.099Z,37.60
2018-09-01T15:24:45.291Z,37.90
2018-09-01T15:27:13.589Z,38.50
2018-09-01T15:29:41.792Z,39.30
2018-09-01T15:32:09.989Z,38.90
2018-09-01T15:34:38.216Z,38.70
2018-09-01T15:37:06.438Z,38.70
2018-09-01T15:39:34.675Z,38.70
2018-09-01T15:42:02.916Z,38.60
2018-09-01T15:44:31.179Z,38.70
2018-09-01T15:46:59.398Z,38.60
2018-09-01T15:49:27.599Z,38.80
2018-09-01T15:51:55.821Z,39.00
2018-09-01T15:54:24.076Z,38.70
2018-09-01T15:56:52.285Z,38.80
2018-09-01T15:59:20.523Z,39.20
2018-09-01T16:01:48.764Z,39.40
2018-09-01T16:04:16.987Z,39.80
2018-09-01T16:06:45.182Z,40.20
2018-09-01T16:09:13.415Z,40.50
2018-09-01T16:11:41.656Z,40.90
2018-09-01T16:14:09.936Z,41.40
2018-09-01T16:16:38.158Z,41.70
2018-09-01T16:19:06.393Z,41.80
2018-09-01T16:21:34.741Z,41.90
2018-09-01T16:24:02.947Z,42.00
2018-09-01T16:26:31.155Z,42.00
2018-09-01T16:28:59.440Z,42.10
2018-09-01T16:31:27.740Z,42.20
2018-09-01T16:33:55.944Z,42.20
2018-09-01T16:36:24.172Z,42.10
2018-09-01T16:38:52.456Z,42.00
2018-09-01T16:41:20.692Z,41.80
2018-09-01T16:43:48.909Z,41.90
2018-09-01T16:46:17.111Z,42.00
2018-09-01T16:48:45.512Z,42.00
2018-09-01T16:51:13.752Z,42.20
2018-09-01T16:53:41.920Z,42.30
2018-09-01T16:56:10.209Z,42.50
2018-09-01T16:58:38.459Z,42.80
2018-09-01T17:01:06.753Z,42.90
2018-09-01T17:03:34.954Z,43.00
2018-09-01T17:06:03.163Z,43.10
2018-09-01T17:08:31.371Z,43.30
2018-09-01T17:10:59.616Z,43.50
2018-09-01T17:13:27.848Z,43.70
2018-09-01T17:15:56.107Z,43.90
2018-09-01T17:18:24.579Z,44.10
2018-09-01T17:20:52.786Z,44.20
2018-09-01T17:23:20.997Z,44.40
2018-09-01T17:25:49.797Z,44.60
2018-09-01T17:28:18.004Z,44.70
2018-09-01T17:30:46.238Z,44.80
2018-09-01T17:33:14.472Z,44.90
2018-09-01T17:35:42.669Z,45.10
2018-09-01T17:38:10.908Z,45.30
2018-09-01T17:40:39.124Z,45.30
2018-09-01T17:43:07.348Z,45.30
2018-09-01T17:45:35.571Z,45.50
2018-09-01T17:48:03.855Z,45.50
2018-09-01T17:50:32.180Z,45.70
2018-09-01T17:53:00.472Z,45.70
2018-09-01T17:55:28.753Z,45.90
2018-09-01T17:57:56.983Z,46.00
2018-09-01T18:00:25.264Z,46.10
2018-09-01T18:02:53.480Z,46.20
2018-09-01T18:05:21.708Z,46.30
2018-09-01T18:07:49.960Z,46.40
2018-09-01T18:10:18.180Z,46.40
2018-09-01T18:12:46.412Z,46.60
2018-09-01T18:15:14.608Z,46.70
2018-09-01T18:17:42.877Z,46.80
2018-09-01T18:20:11.124Z,47.10
2018-09-01T18:22:39.320Z,47.30
2018-09-01T18:25:07.567Z,47.50
2018-09-01T18:27:35.795Z,48.40
2018-09-01T18:30:04.136Z,48.00
2018-09-01T18:32:32.432Z,48.20
2018-09-01T18:35:00.661Z,48.50
2018-09-01T18:37:28.896Z,48.70
2018-09-01T18:39:57.100Z,48.90
2018-09-01T18:42:25.328Z,49.00
2018-09-01T18:44:53.588Z,49.20
2018-09-01T18:47:21.851Z,49.40
2018-09-01T18:49:50.010Z,49.50
2018-09-01T18:52:18.238Z,49.70
2018-09-01T18:54:46.468Z,49.80
2018-09-01T18:57:14.692Z,50.00
2018-09-01T18:59:42.912Z,50.10
2018-09-01T19:02:11.108Z,50.20
2018-09-01T19:04:39.469Z,50.40
2018-09-01T19:07:07.674Z,50.60
2018-09-01T19:09:35.922Z,50.80
2018-09-01T19:12:04.176Z,50.90
2018-09-01T19:14:32.602Z,50.90
2018-09-01T19:17:00.839Z,50.90
2018-09-01T19:19:29.081Z,50.80
2018-09-01T19:21:57.324Z,50.80
2018-09-01T19:24:25.532Z,50.90
2018-09-01T19:26:53.785Z,50.90
2018-09-01T19:29:22.028Z,51.10
2018-09-01T19:31:50.431Z,51.10
2018-09-01T19:34:18.707Z,51.30
2018-09-01T19:36:46.944Z,51.50
2018-09-01T19:39:15.364Z,51.60
2018-09-01T19:41:43.949Z,51.80
2018-09-01T19:44:12.443Z,52.00
2018-09-01T19:46:40.588Z,52.20
2018-09-01T19:49:09.220Z,52.30
2018-09-01T19:51:37.770Z,52.30
2018-09-01T19:54:06.204Z,52.40
2018-09-01T19:56:34.431Z,52.60
2018-09-01T19:59:03.043Z,52.70
2018-09-01T20:01:31.260Z,52.70
2018-09-01T20:03:59.464Z,52.80
2018-09-01T20:06:27.916Z,52.80
2018-09-01T20:08:56.112Z,53.00
2018-09-01T20:11:24.297Z,53.20
2018-09-01T20:13:52.697Z,53.40
2018-09-01T20:16:20.896Z,53.60
2018-09-01T20:18:49.105Z,53.90
2018-09-01T20:21:17.331Z,54.20
2018-09-01T20:23:45.544Z,54.60
2018-09-01T20:26:13.772Z,55.00
2018-09-01T20:28:41.961Z,55.30
2018-09-01T20:31:10.191Z,55.10
2018-09-01T20:33:38.415Z,55.90
2018-09-01T20:36:11.328Z,56.20
2018-09-01T20:38:39.631Z,56.50
2018-09-01T20:41:07.838Z,56.60
2018-09-01T20:43:36.067Z,56.70
2018-09-01T20:46:04.440Z,56.80
2018-09-01T20:48:32.925Z,56.90
2018-09-01T20:51:01.140Z,57.00
2018-09-01T20:53:29.347Z,57.20
2018-09-01T20:55:57.887Z,57.40
2018-09-01T20:58:26.075Z,57.60
2018-09-01T21:00:54.270Z,57.90
2018-09-01T21:03:22.652Z,58.20
2018-09-01T21:05:50.868Z,58.50
2018-09-01T21:08:19.060Z,58.80
2018-09-01T21:10:47.516Z,59.00
2018-09-01T21:13:15.739Z,59.30
2018-09-01T21:15:44.152Z,59.60
2018-09-01T21:18:12.400Z,59.90
2018-09-01T21:20:40.983Z,60.30
2018-09-01T21:23:09.254Z,60.50
2018-09-01T21:25:37.467Z,60.70
2018-09-01T21:28:05.995Z,60.90
2018-09-01T21:30:35.193Z,60.90
2018-09-01T21:33:03.396Z,61.70
2018-09-01T21:35:32.047Z,61.20
2018-09-01T21:38:00.272Z,62.80
2018-09-01T21:40:28.507Z,62.30
2018-09-01T21:42:57.128Z,62.40
2018-09-01T21:45:25.315Z,62.80
2018-09-01T21:47:53.688Z,63.10
2018-09-01T21:50:21.965Z,63.30
2018-09-01T21:52:50.164Z,63.60
2018-09-01T21:55:18.664Z,63.30
2018-09-01T21:57:46.992Z,63.20
2018-09-01T22:00:15.184Z,63.30
2018-09-01T22:02:43.631Z,63.60
2018-09-01T22:05:19.327Z,63.90
2018-09-01T22:07:48.023Z,64.20
2018-09-01T22:10:16.233Z,64.20
2018-09-01T22:12:44.426Z,64.40
2018-09-01T22:15:12.861Z,64.70
2018-09-01T22:17:41.047Z,64.80
2018-09-01T22:20:09.240Z,64.70
2018-09-01T22:22:37.724Z,64.60
2018-09-01T22:25:06.037Z,64.60
2018-09-01T22:27:34.403Z,64.60
2018-09-01T22:30:02.622Z,64.70
2018-09-01T22:32:30.824Z,65.00
2018-09-01T22:34:59.271Z,65.20
2018-09-01T22:37:27.515Z,65.90
2018-09-01T22:39:55.947Z,65.40
2018-09-01T22:42:24.528Z,65.50
2018-09-01T22:44:52.720Z,65.50
2018-09-01T22:47:25.117Z,65.70
2018-09-01T22:49:53.308Z,66.00
2018-09-01T22:52:21.631Z,66.00
2018-09-01T22:54:50.174Z,66.20
2018-09-01T22:57:18.516Z,66.30
2018-09-01T22:59:47.276Z,66.50
2018-09-01T23:02:15.719Z,66.70
2018-09-01T23:04:43.896Z,66.90
2018-09-01T23:07:12.652Z,67.30
2018-09-01T23:09:40.864Z,67.60
2018-09-01T23:12:09.063Z,67.90
2018-09-01T23:14:37.520Z,68.10
2018-09-01T23:17:05.711Z,68.30
2018-09-01T23:19:34.303Z,68.40
2018-09-01T23:22:02.504Z,68.50
2018-09-01T23:24:30.696Z,68.60
2018-09-01T23:26:59.044Z,68.70
2018-09-01T23:29:27.258Z,68.70
2018-09-01T23:31:55.851Z,68.70
2018-09-01T23:34:24.031Z,68.70
2018-09-01T23:36:52.397Z,68.70
2018-09-01T23:39:20.644Z,68.70
2018-09-01T23:41:48.888Z,68.90
2018-09-01T23:44:17.800Z,69.50
2018-09-01T23:46:46.000Z,69.70
2018-09-01T23:49:14.196Z,70.00
2018-09-01T23:51:42.571Z,70.10
2018-09-01T23:54:10.761Z,70.30
2018-09-01T23:56:39.040Z,70.60
2018-09-01T23:59:07.656Z,70.70
